createdAt,value
2018-10-03T00:00:40.423Z,6.23
2018-10-03T00:05:44.220Z,0.50
2018-10-03T00:10:48.267Z,0.50
2018-10-03T00:15:52.848Z,2.70
2018-10-03T00:20:56.461Z,0.50
2018-10-03T00:25:59.917Z,0.50
2018-10-03T00:31:04.734Z,7.90
2018-10-03T00:36:08.385Z,8.90
2018-10-03T00:41:12.233Z,0.50
2018-10-03T00:46:16.501Z,4.17
2018-10-03T00:51:20.123Z,5.80
2018-10-03T00:56:23.741Z,3.63
2018-10-03T01:01:27.284Z,2.90
2018-10-03T01:06:30.960Z,3.80
2018-10-03T01:11:34.757Z,3.67
2018-10-03T01:16:38.798Z,5.00
2018-10-03T01:21:42.817Z,5.30
2018-10-03T01:26:46.411Z,5.00
2018-10-03T01:31:50.442Z,6.57
2018-10-03T01:36:54.226Z,8.17
2018-10-03T01:41:57.677Z,8.93
2018-10-03T01:47:01.398Z,6.60
2018-10-03T01:52:05.332Z,9.30
2018-10-03T01:57:09.049Z,7.97
2018-10-03T02:02:13.017Z,9.23
2018-10-03T02:07:16.448Z,6.20
2018-10-03T02:12:19.894Z,4.13
2018-10-03T02:17:24.086Z,3.87
2018-10-03T02:22:28.154Z,4.57
2018-10-03T02:27:31.914Z,4.53
2018-10-03T02:32:35.771Z,4.30
2018-10-03T02:37:39.360Z,4.90
2018-10-03T02:42:43.040Z,6.93
2018-10-03T02:47:47.369Z,9.53
2018-10-03T02:52:51.875Z,7.63
2018-10-03T02:57:55.569Z,7.33
2018-10-03T03:02:59.653Z,7.37
2018-10-03T03:08:03.206Z,5.53
2018-10-03T03:13:06.861Z,8.30
2018-10-03T03:18:11.127Z,5.20
2018-10-03T03:23:15.067Z,5.03
2018-10-03T03:28:18.820Z,6.40
2018-10-03T03:33:22.288Z,4.70
2018-10-03T03:38:26.151Z,5.23
2018-10-03T03:43:29.544Z,4.30
2018-10-03T03:48:33.567Z,5.60
2018-10-03T03:53:37.300Z,5.53
2018-10-03T03:58:40.689Z,4.37
2018-10-03T04:03:44.503Z,5.37
2018-10-03T04:08:48.029Z,5.70
2018-10-03T04:13:51.749Z,6.27
2018-10-03T04:18:56.086Z,6.20
2018-10-03T04:23:59.687Z,4.77
2018-10-03T04:29:04.269Z,5.57
2018-10-03T04:34:08.505Z,6.23
2018-10-03T04:39:12.425Z,6.23
2018-10-03T04:44:16.023Z,6.17
2018-10-03T04:49:20.243Z,4.23
2018-10-03T04:54:23.999Z,4.93
2018-10-03T04:59:27.970Z,4.97
2018-10-03T05:04:32.765Z,6.23
2018-10-03T05:09:36.719Z,6.60
2018-10-03T05:14:40.309Z,6.60
2018-10-03T05:19:43.979Z,6.90
2018-10-03T05:25:18.614Z,6.07
2018-10-03T05:30:22.537Z,6.17
2018-10-03T05:35:36.211Z,6.60
2018-10-03T05:40:40.497Z,4.40
2018-10-03T05:45:44.113Z,6.70
2018-10-03T05:50:48.115Z,6.07
2018-10-03T05:55:51.560Z,5.37
2018-10-03T06:00:55.558Z,6.47
2018-10-03T06:05:59.463Z,5.23
2018-10-03T06:11:03.085Z,6.13
2018-10-03T06:16:06.751Z,5.63
2018-10-03T06:21:10.663Z,4.20
2018-10-03T06:26:15.139Z,6.00
2018-10-03T06:31:19.120Z,5.10
2018-10-03T06:36:23.001Z,5.00
2018-10-03T06:41:26.840Z,4.57
2018-10-03T06:46:30.481Z,4.67
2018-10-03T06:51:34.720Z,4.20
2018-10-03T06:56:38.255Z,4.70
2018-10-03T07:01:42.171Z,5.67
2018-10-03T07:06:45.524Z,4.60
2018-10-03T07:11:49.071Z,3.67
2018-10-03T07:16:52.413Z,3.87
2018-10-03T07:21:58.827Z,4.40
2018-10-03T07:27:02.288Z,4.00
2018-10-03T07:32:06.442Z,3.87
2018-10-03T07:37:10.188Z,4.63
2018-10-03T07:42:13.899Z,4.87
2018-10-03T07:47:18.956Z,4.57
2018-10-03T07:52:23.007Z,5.23
2018-10-03T07:57:26.605Z,5.30
2018-10-03T08:02:30.356Z,4.93
2018-10-03T08:07:35.580Z,5.77
2018-10-03T08:12:39.680Z,6.53
2018-10-03T08:17:43.712Z,5.97
2018-10-03T08:22:47.251Z,9.00
2018-10-03T08:27:50.846Z,5.87
2018-10-03T08:32:54.373Z,7.00
2018-10-03T08:37:57.940Z,5.10
2018-10-03T08:43:01.501Z,6.23
2018-10-03T08:48:04.838Z,6.43
2018-10-03T08:53:08.691Z,5.97
2018-10-03T08:58:12.056Z,5.40
2018-10-03T09:03:15.440Z,5.90
2018-10-03T09:08:18.801Z,4.83
2018-10-03T09:13:24.330Z,5.00
2018-10-03T09:18:27.664Z,4.67
2018-10-03T09:23:31.523Z,4.20
2018-10-03T09:28:34.845Z,8.00
2018-10-03T09:33:38.139Z,6.50
2018-10-03T09:38:42.016Z,7.57
2018-10-03T09:43:46.510Z,7.80
2018-10-03T09:48:50.208Z,7.30
2018-10-03T09:53:53.977Z,7.20
2018-10-03T09:58:57.284Z,5.50
2018-10-03T10:04:07.653Z,5.77
2018-10-03T10:09:12.532Z,5.23
2018-10-03T10:14:15.947Z,5.37
2018-10-03T10:19:19.430Z,5.30
2018-10-03T10:24:22.830Z,5.27
2018-10-03T10:29:26.238Z,6.27
2018-10-03T10:34:29.597Z,6.50
2018-10-03T10:39:33.033Z,5.73
2018-10-03T10:44:36.424Z,5.20
2018-10-03T10:49:40.117Z,4.63
2018-10-03T10:54:43.773Z,4.67
2018-10-03T10:59:48.042Z,5.00
2018-10-03T11:04:52.597Z,3.20
2018-10-03T11:09:57.372Z,5.50
2018-10-03T11:15:01.605Z,3.43
2018-10-03T11:20:06.207Z,3.70
2018-10-03T11:25:11.405Z,4.03
2018-10-03T11:30:16.452Z,4.00
2018-10-03T11:35:22.588Z,3.60
2018-10-03T11:40:28.337Z,3.47
2018-10-03T11:45:33.043Z,4.77
2018-10-03T11:50:37.521Z,3.60
2018-10-03T11:55:42.759Z,4.20
2018-10-03T12:00:47.650Z,2.60
2018-10-03T12:05:51.850Z,3.70
2018-10-03T12:10:55.877Z,4.27
2018-10-03T12:15:59.800Z,5.17
2018-10-03T12:21:04.262Z,4.00
2018-10-03T12:26:10.057Z,3.80
2018-10-03T12:31:13.685Z,3.60
2018-10-03T12:36:17.000Z,2.93
2018-10-03T12:41:20.408Z,3.40
2018-10-03T12:46:23.835Z,3.80
2018-10-03T12:51:27.441Z,3.30
2018-10-03T12:56:31.471Z,2.83
2018-10-03T13:01:34.875Z,3.17
2018-10-03T13:06:38.301Z,3.03
2018-10-03T13:11:42.528Z,2.77
2018-10-03T13:16:45.892Z,2.27
2018-10-03T13:21:49.273Z,2.80
2018-10-03T13:26:53.211Z,2.90
2018-10-03T13:31:56.866Z,2.27
2018-10-03T13:37:03.957Z,3.77
2018-10-03T13:42:08.329Z,2.53
2018-10-03T13:47:12.578Z,2.27
2018-10-03T13:52:16.137Z,2.60
2018-10-03T13:57:19.530Z,2.50
2018-10-03T14:02:23.323Z,3.07
2018-10-03T14:07:26.846Z,3.40
2018-10-03T14:12:30.328Z,3.80
2018-10-03T14:17:33.720Z,3.03
2018-10-03T14:22:37.200Z,3.60
2018-10-03T14:27:40.894Z,2.70
2018-10-03T14:32:44.859Z,2.93
2018-10-03T14:37:48.261Z,2.90
2018-10-03T14:42:51.757Z,2.83
2018-10-03T14:47:55.112Z,2.93
2018-10-03T14:52:58.745Z,3.50
2018-10-03T14:58:02.233Z,2.93
2018-10-03T15:03:05.709Z,3.00
2018-10-03T15:08:09.482Z,3.50
2018-10-03T15:13:13.050Z,3.20
2018-10-03T15:18:16.577Z,3.10
2018-10-03T15:23:20.016Z,3.13
2018-10-03T15:28:23.542Z,3.27
2018-10-03T15:33:33.602Z,4.40
2018-10-03T15:38:40.111Z,3.00
2018-10-03T15:43:44.481Z,3.73
2018-10-03T15:49:03.490Z,3.03
2018-10-03T15:54:07.169Z,3.13
2018-10-03T15:59:11.776Z,2.60
2018-10-03T16:04:16.120Z,2.70
2018-10-03T16:09:19.905Z,4.37
2018-10-03T16:14:24.419Z,3.50
2018-10-03T16:19:29.101Z,3.60
2018-10-03T16:24:33.293Z,3.37
2018-10-03T16:29:37.530Z,3.80
2018-10-03T16:34:42.508Z,2.63
2018-10-03T16:39:46.559Z,4.00
2018-10-03T16:44:50.280Z,3.77
2018-10-03T16:49:54.165Z,3.70
2018-10-03T16:54:58.441Z,3.90
2018-10-03T17:00:03.086Z,3.67
2018-10-03T17:05:07.245Z,3.70
2018-10-03T17:10:11.113Z,3.60
2018-10-03T17:15:15.109Z,4.90
2018-10-03T17:20:18.704Z,3.67
2018-10-03T17:25:22.588Z,3.70
2018-10-03T17:30:26.499Z,4.10
2018-10-03T17:35:30.189Z,3.90
2018-10-03T17:40:33.914Z,3.30
2018-10-03T17:45:37.726Z,3.87
2018-10-03T17:50:41.770Z,3.57
2018-10-03T17:55:45.414Z,4.83
2018-10-03T18:00:50.817Z,3.83
2018-10-03T18:05:56.321Z,4.00
2018-10-03T18:11:00.085Z,4.27
2018-10-03T18:16:03.905Z,3.80
2018-10-03T18:21:07.676Z,3.40
2018-10-03T18:26:11.355Z,3.07
2018-10-03T18:31:15.528Z,2.23
2018-10-03T18:36:19.305Z,3.57
2018-10-03T18:41:23.387Z,3.37
2018-10-03T18:46:27.409Z,3.00
2018-10-03T18:51:31.318Z,3.50
2018-10-03T18:56:41.031Z,3.30
2018-10-03T19:01:49.522Z,4.80
2018-10-03T19:06:54.196Z,2.60
2018-10-03T19:11:58.254Z,2.50
2018-10-03T19:17:02.232Z,2.77
2018-10-03T19:22:11.535Z,4.30
2018-10-03T19:27:16.792Z,3.60
2018-10-03T19:32:29.470Z,3.53
2018-10-03T19:37:36.144Z,1.70
2018-10-03T19:42:40.505Z,3.33
2018-10-03T19:47:47.146Z,3.60
2018-10-03T19:52:51.543Z,2.67
2018-10-03T19:57:55.797Z,3.17
2018-10-03T20:03:00.697Z,2.80
2018-10-03T20:08:05.147Z,2.80
2018-10-03T20:13:14.213Z,2.80
2018-10-03T20:18:18.543Z,3.10
2018-10-03T20:23:23.085Z,3.00
2018-10-03T20:28:27.530Z,2.70
2018-10-03T20:33:32.287Z,2.93
2018-10-03T20:38:51.534Z,2.40
2018-10-03T20:43:57.715Z,2.80
2018-10-03T20:49:02.486Z,2.90
2018-10-03T20:54:06.383Z,3.80
2018-10-03T20:59:10.257Z,2.87
2018-10-03T21:04:14.825Z,4.40
2018-10-03T21:09:18.469Z,3.37
2018-10-03T21:14:22.001Z,2.63
2018-10-03T21:19:26.125Z,4.20
2018-10-03T21:24:29.892Z,3.77
2018-10-03T21:29:34.169Z,3.67
2018-10-03T21:34:38.303Z,4.07
2018-10-03T21:39:42.307Z,2.63
2018-10-03T21:44:54.186Z,3.00
2018-10-03T21:50:00.131Z,4.10
2018-10-03T21:55:04.308Z,3.63
2018-10-03T22:00:11.259Z,2.80
2018-10-03T22:05:15.863Z,3.67
2018-10-03T22:10:20.086Z,4.80
2018-10-03T22:15:24.192Z,4.10
2018-10-03T22:20:27.705Z,3.60
2018-10-03T22:25:31.657Z,3.33
2018-10-03T22:30:35.381Z,3.27
2018-10-03T22:35:39.111Z,3.90
2018-10-03T22:40:42.836Z,4.30
2018-10-03T22:45:46.703Z,4.00
2018-10-03T22:50:50.385Z,3.53
2018-10-03T22:55:54.541Z,3.23
2018-10-03T23:00:58.155Z,3.40
2018-10-03T23:06:01.839Z,3.47
2018-10-03T23:11:05.315Z,3.13
2018-10-03T23:16:09.028Z,3.60
2018-10-03T23:21:13.037Z,3.00
2018-10-03T23:26:17.073Z,3.70
2018-10-03T23:31:20.827Z,3.53
2018-10-03T23:36:24.788Z,2.73
2018-10-03T23:41:28.580Z,3.97
2018-10-03T23:46:32.382Z,4.50
2018-10-03T23:51:36.290Z,3.57
2018-10-03T23:56:39.884Z,2.40
